Time;durP1;ratioP1;P1;durP2;ratioP2;P2;SDS_P1;SDS_P2;PMS_P1;PMS_P2;Temp;Humidity;BMP_temperature;BMP_pressure;BME280_temperature;BME280_humidity;BME280_pressure;Samples;Min_cycle;Max_cycle;Signal;HPM_P1;HPM_P2
2022/07/30 05:17:22;;;;;;;;;;;15.50;99.90;;;;;;5926715;24;19988;-71
2022/07/30 05:19:48;;;;;;;;;;;15.60;99.90;;;;;;5903848;24;19919;-71
2022/07/30 05:22:13;;;;;;;;;;;15.70;99.90;;;;;;5926176;24;19914;-71
2022/07/30 05:27:46;;;;;;;;;;;15.90;99.90;;;;;;6077395;23;19908;-72
2022/07/30 05:30:21;;;;;;;;;;;16.00;99.90;;;;;;6102250;23;19913;-71
2022/07/30 05:33:23;;;;;;;;;;;16.10;99.90;;;;;;6101573;23;19909;-71
2022/07/30 05:36:01;;;;;;;;;;;16.30;99.90;;;;;;6042968;23;20432;-71
2022/07/30 05:39:07;;;;;;;;;;;16.50;99.90;;;;;;6090893;23;19909;-72
2022/07/30 05:41:41;;;;;;;;;;;16.70;99.90;;;;;;6004464;23;19913;-72
2022/07/30 05:44:33;;;;;;;;;;;16.70;99.90;;;;;;6087898;23;19921;-72
2022/07/30 05:47:02;;;;;;;;;;;17.00;99.90;;;;;;6066371;23;20001;-72
2022/07/30 05:49:28;;;;;;;;;;;17.10;99.90;;;;;;6066013;23;19948;-69
2022/07/30 05:51:53;;;;;;;;;;;17.30;99.90;;;;;;6065807;23;19910;-69
2022/07/30 05:54:19;;;;;;;;;;;17.50;99.90;;;;;;6065857;23;19937;-69
2022/07/30 05:56:44;;;;;;;;;;;17.60;99.90;;;;;;6065658;23;20372;-69
2022/07/30 05:59:10;;;;;;;;;;;17.80;99.90;;;;;;6018130;23;19938;-69
2022/07/30 06:01:35;;;;;;;;;;;18.00;99.90;;;;;;6065993;23;19941;-69
2022/07/30 06:04:01;;;;;;;;;;;18.20;99.90;;;;;;6090931;23;20462;-69
2022/07/30 06:06:26;;;;;;;;;;;18.30;99.90;;;;;;6088303;23;20361;-69
2022/07/30 06:08:52;;;;;;;;;;;18.50;99.90;;;;;;6126011;23;19963;-69
2022/07/30 06:11:18;;;;;;;;;;;18.70;99.90;;;;;;6126329;23;19913;-69
2022/07/30 06:13:43;;;;;;;;;;;18.80;99.90;;;;;;6101734;23;19919;-69
2022/07/30 06:16:09;;;;;;;;;;;18.90;99.90;;;;;;6126468;23;19964;-69
2022/07/30 06:18:34;;;;;;;;;;;19.10;99.90;;;;;;6101839;23;19959;-69
2022/07/30 06:21:00;;;;;;;;;;;19.40;99.90;;;;;;6101814;23;19940;-69
2022/07/30 06:23:25;;;;;;;;;;;19.50;99.90;;;;;;6101834;23;19913;-69
2022/07/30 06:25:51;;;;;;;;;;;19.60;99.90;;;;;;6127298;23;19924;-69
2022/07/30 06:28:17;;;;;;;;;;;19.60;99.90;;;;;;6126199;23;19995;-69
2022/07/30 06:30:47;;;;;;;;;;;19.50;99.90;;;;;;6127263;23;20370;-69
2022/07/30 06:33:14;;;;;;;;;;;19.40;99.90;;;;;;6101485;23;19913;-69
2022/07/30 06:35:39;;;;;;;;;;;19.10;99.90;;;;;;6101909;23;19912;-69
2022/07/30 06:38:06;;;;;;;;;;;19.00;99.90;;;;;;6126176;23;19913;-69
2022/07/30 06:40:32;;;;;;;;;;;19.00;99.90;;;;;;6127213;23;19971;-69
2022/07/30 06:42:57;;;;;;;;;;;18.90;99.90;;;;;;6101445;23;19936;-69
2022/07/30 06:45:23;;;;;;;;;;;18.80;99.90;;;;;;6077940;23;20283;-69
2022/07/30 06:47:49;;;;;;;;;;;18.70;99.90;;;;;;6127631;23;19935;-69
2022/07/30 06:50:14;;;;;;;;;;;18.70;99.90;;;;;;6127582;23;20223;-69
2022/07/30 06:52:40;;;;;;;;;;;18.70;99.90;;;;;;6127412;23;19912;-69
2022/07/30 06:55:05;;;;;;;;;;;18.70;99.90;;;;;;6127571;23;19940;-69
2022/07/30 06:57:31;;;;;;;;;;;18.90;99.90;;;;;;6127143;23;19963;-69
2022/07/30 06:59:57;;;;;;;;;;;19.00;99.90;;;;;;6101459;23;19913;-69
2022/07/30 07:02:22;;;;;;;;;;;19.10;99.90;;;;;;6101724;23;19976;-69
2022/07/30 07:04:48;;;;;;;;;;;19.10;99.90;;;;;;6126128;23;19991;-69
2022/07/30 07:07:13;;;;;;;;;;;19.20;99.90;;;;;;6101524;23;20232;-69
2022/07/30 07:09:39;;;;;;;;;;;19.40;99.90;;;;;;6127433;23;20300;-69
2022/07/30 07:12:05;;;;;;;;;;;19.60;99.90;;;;;;6101469;23;19916;-69
2022/07/30 07:14:30;;;;;;;;;;;19.90;99.90;;;;;;6125877;23;19935;-71
2022/07/30 07:16:56;;;;;;;;;;;20.20;99.90;;;;;;6127301;23;19955;-69
2022/07/30 07:19:23;;;;;;;;;;;20.30;99.90;;;;;;6101674;23;19924;-69
2022/07/30 07:21:51;;;;;;;;;;;20.10;99.90;;;;;;6102060;23;19913;-72
2022/07/30 07:24:19;;;;;;;;;;;20.00;99.90;;;;;;6125420;23;19912;-69
2022/07/30 07:26:45;;;;;;;;;;;19.70;99.90;;;;;;6125938;23;19912;-68
2022/07/30 07:29:11;;;;;;;;;;;19.60;99.90;;;;;;6125846;23;20170;-69
2022/07/30 07:31:36;;;;;;;;;;;19.80;99.90;;;;;;6101292;23;19913;-69
2022/07/30 07:34:02;;;;;;;;;;;20.10;99.90;;;;;;6101429;23;19917;-69
2022/07/30 07:36:30;;;;;;;;;;;20.40;99.90;;;;;;6101533;23;19913;-69
2022/07/30 07:38:56;;;;;;;;;;;20.80;99.90;;;;;;6103017;23;19993;-70
2022/07/30 07:41:21;;;;;;;;;;;21.20;99.90;;;;;;6129346;23;20005;-70
2022/07/30 07:43:47;;;;;;;;;;;21.20;99.90;;;;;;6127312;23;19920;-70
2022/07/30 07:46:15;;;;;;;;;;;21.40;99.90;;;;;;6102703;23;19909;-69
2022/07/30 07:48:41;;;;;;;;;;;21.50;99.90;;;;;;6124447;23;19988;-71
2022/07/30 07:51:07;;;;;;;;;;;21.20;99.90;;;;;;6101573;23;19983;-70
2022/07/30 07:53:32;;;;;;;;;;;21.10;99.90;;;;;;6101904;23;20314;-70
2022/07/30 07:55:58;;;;;;;;;;;21.20;99.90;;;;;;6127886;23;19957;-69
2022/07/30 07:58:24;;;;;;;;;;;21.20;99.90;;;;;;6127248;23;19992;-69
2022/07/30 08:00:50;;;;;;;;;;;21.40;99.90;;;;;;6103419;23;20219;-69
2022/07/30 08:03:15;;;;;;;;;;;21.80;99.90;;;;;;6127876;23;19948;-69
2022/07/30 08:05:41;;;;;;;;;;;22.10;99.90;;;;;;6103183;23;19913;-70
2022/07/30 08:08:07;;;;;;;;;;;22.40;99.90;;;;;;6129424;23;20263;-70
2022/07/30 08:10:32;;;;;;;;;;;22.70;99.90;;;;;;6127797;23;19989;-70
2022/07/30 08:12:58;;;;;;;;;;;23.00;99.90;;;;;;6127509;23;19916;-70
2022/07/30 08:15:23;;;;;;;;;;;22.80;99.90;;;;;;6127506;23;20227;-70
2022/07/30 08:17:49;;;;;;;;;;;22.80;99.90;;;;;;6128999;23;19940;-70
2022/07/30 08:20:18;;;;;;;;;;;22.80;99.90;;;;;;6079111;23;19991;-70
2022/07/30 08:22:43;;;;;;;;;;;22.80;99.90;;;;;;6102831;23;19920;-70
2022/07/30 08:25:09;;;;;;;;;;;22.90;99.90;;;;;;6127302;23;19991;-70
2022/07/30 08:27:35;;;;;;;;;;;23.00;99.90;;;;;;6103165;23;19919;-70
2022/07/30 08:30:02;;;;;;;;;;;23.20;99.90;;;;;;6102853;23;19912;-70
2022/07/30 08:32:28;;;;;;;;;;;23.30;99.90;;;;;;6127234;23;19920;-74
2022/07/30 08:34:54;;;;;;;;;;;23.20;99.90;;;;;;6101969;23;19913;-71
2022/07/30 08:37:19;;;;;;;;;;;23.10;99.90;;;;;;6103002;23;19913;-72
2022/07/30 08:39:45;;;;;;;;;;;23.20;99.90;;;;;;6102553;23;19913;-72
2022/07/30 08:42:12;;;;;;;;;;;23.50;99.90;;;;;;6102460;23;19913;-72
2022/07/30 08:44:39;;;;;;;;;;;23.60;99.90;;;;;;6126813;23;19995;-71
2022/07/30 08:47:06;;;;;;;;;;;23.20;99.90;;;;;;6101766;23;19957;-71
2022/07/30 08:49:32;;;;;;;;;;;22.80;99.90;;;;;;6102216;23;19946;-72
2022/07/30 08:51:57;;;;;;;;;;;22.80;99.90;;;;;;6102367;23;20002;-71
2022/07/30 08:54:26;;;;;;;;;;;23.00;99.90;;;;;;6128625;23;20271;-72
2022/07/30 08:56:52;;;;;;;;;;;23.20;99.90;;;;;;6127006;23;19916;-71
2022/07/30 08:59:20;;;;;;;;;;;23.30;99.50;;;;;;6102410;23;19917;-71
2022/07/30 09:01:46;;;;;;;;;;;23.50;99.90;;;;;;6078957;23;19913;-72
2022/07/30 09:04:13;;;;;;;;;;;23.50;99.40;;;;;;6102431;23;20355;-71
2022/07/30 09:06:39;;;;;;;;;;;23.30;99.90;;;;;;6126434;23;19919;-71
2022/07/30 09:09:05;;;;;;;;;;;23.10;99.90;;;;;;6128504;23;19913;-71
2022/07/30 09:11:32;;;;;;;;;;;22.90;99.90;;;;;;6102486;23;20280;-72
2022/07/30 09:14:06;;;;;;;;;;;23.20;99.90;;;;;;6101886;23;19913;-72
2022/07/30 09:16:34;;;;;;;;;;;23.40;99.80;;;;;;6126865;23;19921;-72
2022/07/30 09:19:10;;;;;;;;;;;23.80;99.70;;;;;;6101818;23;19912;-71
2022/07/30 09:21:38;;;;;;;;;;;24.10;99.10;;;;;;6103045;23;19913;-72
2022/07/30 09:24:08;;;;;;;;;;;24.40;98.10;;;;;;6101871;23;20351;-71
2022/07/30 09:26:56;;;;;;;;;;;24.40;98.50;;;;;;6101853;23;19913;-71
2022/07/30 09:29:23;;;;;;;;;;;24.30;97.80;;;;;;6128079;23;19913;-71
2022/07/30 09:31:52;;;;;;;;;;;24.10;98.30;;;;;;6101732;23;19979;-71
2022/07/30 09:34:24;;;;;;;;;;;24.10;99.00;;;;;;6127911;23;19955;-71
2022/07/30 09:36:52;;;;;;;;;;;24.20;98.50;;;;;;6126519;23;19913;-71
2022/07/30 09:39:33;;;;;;;;;;;24.10;98.50;;;;;;6128051;23;20328;-72
2022/07/30 09:42:00;;;;;;;;;;;24.00;98.70;;;;;;6127848;23;19967;-71
2022/07/30 09:44:27;;;;;;;;;;;24.00;99.00;;;;;;6100895;23;19912;-72
2022/07/30 09:46:54;;;;;;;;;;;23.80;98.10;;;;;;6101933;23;20007;-72
2022/07/30 09:49:25;;;;;;;;;;;23.60;98.60;;;;;;6127938;23;19967;-71
2022/07/30 09:51:51;;;;;;;;;;;23.70;99.00;;;;;;6101340;23;19932;-71
2022/07/30 09:54:25;;;;;;;;;;;24.00;98.20;;;;;;6127642;23;19916;-71
2022/07/30 09:57:02;;;;;;;;;;;24.30;98.70;;;;;;6127980;23;19917;-71
2022/07/30 09:59:29;;;;;;;;;;;24.70;98.10;;;;;;6102213;23;19913;-72
2022/07/30 10:01:55;;;;;;;;;;;24.90;97.30;;;;;;6125944;23;19955;-71
2022/07/30 10:04:25;;;;;;;;;;;25.10;96.10;;;;;;6127704;23;19913;-71
2022/07/30 10:06:51;;;;;;;;;;;24.90;96.00;;;;;;6125982;23;19985;-71
2022/07/30 10:09:30;;;;;;;;;;;25.10;95.60;;;;;;6101736;23;19913;-71
2022/07/30 10:11:57;;;;;;;;;;;24.90;95.30;;;;;;6101581;23;19920;-71
2022/07/30 10:14:24;;;;;;;;;;;24.90;95.10;;;;;;6127669;23;19917;-71
2022/07/30 10:16:50;;;;;;;;;;;24.80;95.70;;;;;;6101774;23;19913;-71
2022/07/30 10:19:17;;;;;;;;;;;24.80;96.10;;;;;;6127450;23;19975;-71
2022/07/30 10:21:46;;;;;;;;;;;25.00;95.80;;;;;;6101252;23;19917;-70
2022/07/30 10:24:15;;;;;;;;;;;24.90;94.90;;;;;;6101049;23;19948;-70
2022/07/30 10:26:40;;;;;;;;;;;24.70;95.50;;;;;;6125788;23;20231;-70
2022/07/30 10:29:06;;;;;;;;;;;24.50;95.70;;;;;;6101784;23;19909;-70
2022/07/30 10:31:32;;;;;;;;;;;24.40;95.20;;;;;;6101641;23;19920;-70
2022/07/30 10:33:57;;;;;;;;;;;24.40;95.60;;;;;;6126000;23;19937;-70
2022/07/30 10:36:26;;;;;;;;;;;24.60;95.70;;;;;;6125586;23;19947;-70
2022/07/30 10:38:53;;;;;;;;;;;24.60;95.00;;;;;;6077290;23;19913;-70
2022/07/30 10:41:22;;;;;;;;;;;24.80;94.90;;;;;;6127554;23;19935;-70
2022/07/30 10:44:23;;;;;;;;;;;25.00;94.60;;;;;;6100910;23;19915;-71
2022/07/30 10:46:51;;;;;;;;;;;25.00;94.60;;;;;;5990334;23;19914;-72
2022/07/30 10:49:31;;;;;;;;;;;24.90;94.40;;;;;;6027084;23;19921;-73
2022/07/30 10:55:37;;;;;;;;;;;24.70;94.60;;;;;;6031489;23;19956;-71
2022/07/30 10:59:02;;;;;;;;;;;24.60;94.40;;;;;;6078144;23;19909;-71
2022/07/30 11:02:06;;;;;;;;;;;24.50;95.00;;;;;;6085949;23;19977;-73
2022/07/30 11:08:28;;;;;;;;;;;24.70;94.30;;;;;;5904572;24;19950;-70
2022/07/30 11:10:59;;;;;;;;;;;24.80;94.10;;;;;;6014073;23;19937;-70
2022/07/30 11:17:17;;;;;;;;;;;24.70;93.90;;;;;;6013685;23;19913;-71
2022/07/30 11:20:22;;;;;;;;;;;24.80;93.60;;;;;;6027294;23;19919;-70
2022/07/30 11:22:55;;;;;;;;;;;24.90;92.50;;;;;;6100865;23;19964;-70
2022/07/30 11:25:46;;;;;;;;;;;24.90;92.50;;;;;;6100330;23;19915;-71
2022/07/30 11:28:30;;;;;;;;;;;25.00;92.40;;;;;;6127129;23;19913;-71
2022/07/30 11:30:56;;;;;;;;;;;25.00;92.10;;;;;;6100814;23;19916;-71
2022/07/30 11:33:27;;;;;;;;;;;25.20;91.70;;;;;;6100961;23;19932;-71
2022/07/30 11:36:08;;;;;;;;;;;25.20;92.60;;;;;;6124371;23;19987;-71
2022/07/30 11:38:53;;;;;;;;;;;25.30;90.80;;;;;;6078277;23;19944;-70
2022/07/30 11:41:32;;;;;;;;;;;25.20;90.70;;;;;;6099884;23;20023;-70
2022/07/30 11:44:17;;;;;;;;;;;25.20;90.80;;;;;;6095517;23;20313;-71
2022/07/30 11:47:10;;;;;;;;;;;25.10;90.70;;;;;;6074146;23;19916;-70
2022/07/30 11:49:47;;;;;;;;;;;24.90;90.40;;;;;;6071515;23;19952;-71
2022/07/30 11:52:41;;;;;;;;;;;24.90;90.90;;;;;;6066082;23;19909;-70
2022/07/30 11:58:33;;;;;;;;;;;25.20;91.40;;;;;;6027123;23;19933;-71
2022/07/30 12:01:15;;;;;;;;;;;25.20;91.30;;;;;;6032619;23;19921;-70
2022/07/30 12:04:12;;;;;;;;;;;25.30;90.40;;;;;;6037557;23;19961;-71
2022/07/30 12:07:01;;;;;;;;;;;25.30;90.50;;;;;;6013338;23;19961;-71
2022/07/30 12:09:31;;;;;;;;;;;25.10;90.90;;;;;;6034284;23;19983;-70
2022/07/30 12:12:03;;;;;;;;;;;24.90;91.20;;;;;;6012930;23;20416;-71
2022/07/30 12:14:50;;;;;;;;;;;;;;;;;;;;;
2022/07/30 12:17:39;;;;;;;;;;;25.20;90.10;;;;;;5992689;23;20332;-71
2022/07/30 12:20:12;;;;;;;;;;;25.10;90.50;;;;;;5990259;23;19913;-71
2022/07/30 12:22:44;;;;;;;;;;;25.00;90.50;;;;;;6013656;23;19916;-70
2022/07/30 12:28:19;;;;;;;;;;;25.00;91.80;;;;;;6038858;23;19917;-70
2022/07/30 12:30:45;;;;;;;;;;;25.00;91.60;;;;;;5991241;23;19965;-74
2022/07/30 12:33:13;;;;;;;;;;;25.20;90.90;;;;;;6039041;23;19910;-70
2022/07/30 12:36:08;;;;;;;;;;;25.30;90.20;;;;;;6057155;23;19920;-70
2022/07/30 12:39:02;;;;;;;;;;;25.30;90.20;;;;;;6048123;23;19909;-71
2022/07/30 12:41:44;;;;;;;;;;;25.40;89.50;;;;;;6049187;23;19909;-70
2022/07/30 12:55:04;;;;;;;;;;;;;;;;;;;;;
2022/07/30 13:19:24;;;;;;;;;;;24.60;82.50;;;;;;6016229;23;19920;-70
2022/07/30 13:22:46;;;;;;;;;;;;;;;;;;;;;
2022/07/30 13:30:01;;;;;;;;;;;24.50;87.90;;;;;;6066314;23;19965;-71
2022/07/30 13:32:53;;;;;;;;;;;24.40;87.40;;;;;;5952112;24;19987;-71
2022/07/30 13:36:14;;;;;;;;;;;24.40;87.80;;;;;;5953192;24;19909;-72
2022/07/30 14:09:03;;;;;;;;;;;24.30;91.00;;;;;;6185898;23;19951;-75
2022/07/30 14:22:00;;;;;;;;;;;24.20;90.30;;;;;;6036705;23;20253;-75
2022/07/30 14:51:31;;;;;;;;;;;24.60;88.90;;;;;;6065758;23;19928;-71
2022/07/30 15:51:47;;;;;;;;;;;;;;;;;;;;;
2022/07/30 15:54:54;;;;;;;;;;;24.60;91.00;;;;;;6158460;23;19912;-76
2022/07/30 16:59:39;;;;;;;;;;;22.70;93.30;;;;;;6092354;23;19953;-75
2022/07/30 17:23:08;;;;;;;;;;;22.20;96.20;;;;;;6009655;23;20310;-77
2022/07/30 17:26:02;;;;;;;;;;;22.20;96.10;;;;;;5948519;24;19956;-77
2022/07/30 17:51:58;;;;;;;;;;;21.80;97.00;;;;;;6159770;23;20334;-73
2022/07/30 17:54:27;;;;;;;;;;;21.80;97.70;;;;;;6136781;23;20235;-71
2022/07/30 17:56:52;;;;;;;;;;;21.80;97.20;;;;;;6136070;23;19908;-71
2022/07/30 17:59:18;;;;;;;;;;;21.70;97.10;;;;;;6159466;23;19994;-71
2022/07/30 18:01:49;;;;;;;;;;;21.60;97.20;;;;;;6161249;23;19930;-71
2022/07/30 18:04:23;;;;;;;;;;;21.60;97.00;;;;;;6160641;23;20208;-71
2022/07/30 18:06:55;;;;;;;;;;;21.50;97.40;;;;;;6186981;23;19934;-71
2022/07/30 18:09:24;;;;;;;;;;;21.50;97.70;;;;;;6136233;23;19908;-71
2022/07/30 18:11:50;;;;;;;;;;;21.40;97.70;;;;;;6133796;23;19940;-71
2022/07/30 18:14:22;;;;;;;;;;;21.40;98.00;;;;;;6135159;23;19911;-72
2022/07/30 18:16:58;;;;;;;;;;;21.40;97.80;;;;;;6136341;23;19908;-71
2022/07/30 18:19:26;;;;;;;;;;;21.30;98.30;;;;;;6136074;23;20303;-72
2022/07/30 18:21:52;;;;;;;;;;;21.20;98.30;;;;;;6160046;23;19908;-71
2022/07/30 18:24:20;;;;;;;;;;;21.20;98.70;;;;;;6186739;23;20330;-71
2022/07/30 18:26:46;;;;;;;;;;;21.20;98.60;;;;;;6135641;23;19947;-71
2022/07/30 18:29:14;;;;;;;;;;;21.20;98.70;;;;;;6160663;23;19915;-71
2022/07/30 18:31:42;;;;;;;;;;;21.20;99.10;;;;;;6112313;23;19908;-70
2022/07/30 18:34:11;;;;;;;;;;;21.10;99.00;;;;;;6160418;23;19908;-71
2022/07/30 18:36:36;;;;;;;;;;;21.10;99.20;;;;;;6135933;23;19951;-71
2022/07/30 18:39:03;;;;;;;;;;;21.00;99.50;;;;;;6135728;23;19912;-70
2022/07/30 18:41:28;;;;;;;;;;;21.00;99.80;;;;;;6135643;23;19908;-70
2022/07/30 18:43:54;;;;;;;;;;;21.00;99.90;;;;;;6135540;23;20223;-70
2022/07/30 18:46:19;;;;;;;;;;;20.90;99.90;;;;;;6160155;23;20334;-70
2022/07/30 18:48:47;;;;;;;;;;;20.90;99.90;;;;;;6135840;23;19908;-70
2022/07/30 18:51:13;;;;;;;;;;;20.70;99.90;;;;;;6135529;23;20223;-70
2022/07/30 18:53:42;;;;;;;;;;;20.70;99.90;;;;;;6186672;23;20231;-70
2022/07/30 18:56:08;;;;;;;;;;;20.70;99.90;;;;;;6135725;23;20020;-70
2022/07/30 18:58:36;;;;;;;;;;;20.50;99.90;;;;;;6135567;23;19917;-70
2022/07/30 19:01:04;;;;;;;;;;;20.40;99.90;;;;;;6159932;23;19983;-70
2022/07/30 19:03:30;;;;;;;;;;;20.40;99.90;;;;;;6186456;23;19908;-71
2022/07/30 19:05:59;;;;;;;;;;;20.30;99.90;;;;;;6132513;23;20327;-71
2022/07/30 19:08:27;;;;;;;;;;;20.20;99.90;;;;;;6159790;23;19908;-71
2022/07/30 19:10:53;;;;;;;;;;;20.00;99.90;;;;;;6186230;23;19908;-70
2022/07/30 19:13:22;;;;;;;;;;;20.00;99.90;;;;;;6135324;23;19914;-71
2022/07/30 19:15:48;;;;;;;;;;;20.00;99.90;;;;;;6135709;23;19914;-71
2022/07/30 19:18:14;;;;;;;;;;;20.00;99.90;;;;;;6110970;23;20214;-71
2022/07/30 19:20:42;;;;;;;;;;;20.00;99.90;;;;;;6186134;23;19912;-70
2022/07/30 19:23:08;;;;;;;;;;;19.90;99.90;;;;;;6160329;23;20255;-71
2022/07/30 19:25:35;;;;;;;;;;;19.90;99.90;;;;;;6135146;23;19954;-70
2022/07/30 19:28:02;;;;;;;;;;;19.80;99.90;;;;;;6160023;23;19912;-70
2022/07/30 19:30:40;;;;;;;;;;;19.80;99.90;;;;;;6135469;23;19947;-70
2022/07/30 19:33:12;;;;;;;;;;;19.80;99.90;;;;;;6160066;23;19908;-71
2022/07/30 19:35:47;;;;;;;;;;;19.80;99.90;;;;;;6135455;23;19915;-73
2022/07/30 19:38:13;;;;;;;;;;;19.70;99.90;;;;;;6159705;23;19908;-70
2022/07/30 19:40:44;;;;;;;;;;;19.70;99.90;;;;;;6159797;23;19919;-70
2022/07/30 19:43:10;;;;;;;;;;;19.60;99.90;;;;;;6159608;23;19912;-75
2022/07/30 19:48:42;;;;;;;;;;;19.60;99.90;;;;;;6185889;23;19991;-72
2022/07/30 19:51:08;;;;;;;;;;;19.50;99.90;;;;;;6134936;23;19935;-72
2022/07/30 19:53:34;;;;;;;;;;;19.50;99.90;;;;;;6159652;23;19908;-73
2022/07/30 19:56:01;;;;;;;;;;;19.50;99.90;;;;;;6135291;23;19912;-72
2022/07/30 19:58:27;;;;;;;;;;;19.60;99.90;;;;;;6159412;23;19912;-72
2022/07/30 20:00:56;;;;;;;;;;;19.40;99.90;;;;;;6134565;23;19995;-73
2022/07/30 20:03:21;;;;;;;;;;;19.40;99.90;;;;;;6159338;23;19947;-73
2022/07/30 20:05:50;;;;;;;;;;;19.40;99.90;;;;;;6135073;23;19912;-73
2022/07/30 20:08:42;;;;;;;;;;;19.40;99.90;;;;;;6134607;23;19931;-74
2022/07/30 20:11:10;;;;;;;;;;;19.50;99.90;;;;;;6158975;23;19946;-74
2022/07/30 20:13:41;;;;;;;;;;;19.50;99.90;;;;;;6134835;23;19912;-73
2022/07/30 20:16:12;;;;;;;;;;;19.40;99.90;;;;;;6158833;23;19920;-74
2022/07/30 20:18:38;;;;;;;;;;;19.30;99.90;;;;;;6134797;23;19918;-71
2022/07/30 20:21:04;;;;;;;;;;;19.30;99.90;;;;;;6134574;23;19991;-72
2022/07/30 20:23:30;;;;;;;;;;;19.30;99.90;;;;;;6158973;23;20338;-71
2022/07/30 20:25:59;;;;;;;;;;;19.30;99.90;;;;;;6159595;23;19947;-73
2022/07/30 20:28:27;;;;;;;;;;;19.30;99.90;;;;;;6134857;23;20208;-73
2022/07/30 20:30:53;;;;;;;;;;;19.20;99.90;;;;;;6158442;23;19908;-72
2022/07/30 20:33:19;;;;;;;;;;;19.10;99.90;;;;;;6159227;23;19919;-72
2022/07/30 20:35:45;;;;;;;;;;;19.10;99.90;;;;;;6185683;23;19959;-72
2022/07/30 20:38:11;;;;;;;;;;;19.10;99.90;;;;;;6159605;23;19919;-72
2022/07/30 20:40:37;;;;;;;;;;;19.00;99.90;;;;;;6135516;23;19919;-72
2022/07/30 20:43:04;;;;;;;;;;;19.10;99.90;;;;;;6160107;23;19912;-72
2022/07/30 20:45:32;;;;;;;;;;;19.00;99.90;;;;;;6160219;23;19912;-73
2022/07/30 20:48:01;;;;;;;;;;;18.90;99.90;;;;;;6162192;23;19959;-73
2022/07/30 20:50:29;;;;;;;;;;;18.90;99.90;;;;;;6137275;23;19934;-73
2022/07/30 20:52:55;;;;;;;;;;;19.00;99.90;;;;;;6160896;23;20238;-73
2022/07/30 20:55:21;;;;;;;;;;;19.00;99.90;;;;;;6161749;23;19944;-74
2022/07/30 20:57:46;;;;;;;;;;;19.00;99.90;;;;;;6188045;23;19908;-72
2022/07/30 21:00:14;;;;;;;;;;;19.00;99.90;;;;;;6137269;23;19908;-72
2022/07/30 21:02:40;;;;;;;;;;;18.90;99.90;;;;;;6161150;23;19912;-73
2022/07/30 21:05:05;;;;;;;;;;;18.80;99.90;;;;;;6160871;23;19915;-73
2022/07/30 21:07:42;;;;;;;;;;;18.80;99.90;;;;;;6161456;23;19919;-76
2022/07/30 21:10:10;;;;;;;;;;;18.80;99.90;;;;;;6113428;23;19979;-77
2022/07/30 21:12:46;;;;;;;;;;;18.90;99.90;;;;;;6161489;23;20345;-78
2022/07/30 21:15:15;;;;;;;;;;;18.80;99.90;;;;;;6161402;23;19915;-78
2022/07/30 21:17:44;;;;;;;;;;;18.80;99.90;;;;;;6137265;23;19908;-78
2022/07/30 21:20:10;;;;;;;;;;;18.80;99.90;;;;;;6137834;23;19915;-78
2022/07/30 21:22:38;;;;;;;;;;;18.90;99.90;;;;;;6136753;23;20397;-77
2022/07/30 21:25:05;;;;;;;;;;;18.80;99.90;;;;;;6159588;23;19908;-78
2022/07/30 21:27:37;;;;;;;;;;;18.80;99.90;;;;;;6160806;23;20374;-78
2022/07/30 21:30:05;;;;;;;;;;;18.90;99.90;;;;;;6136793;23;19912;-79
2022/07/30 21:32:33;;;;;;;;;;;18.90;99.90;;;;;;6160887;23;19908;-77
2022/07/30 21:35:00;;;;;;;;;;;18.90;99.90;;;;;;6160806;23;19908;-76
2022/07/30 21:37:26;;;;;;;;;;;18.80;99.90;;;;;;6136258;23;19908;-77
2022/07/30 21:39:54;;;;;;;;;;;18.90;99.90;;;;;;6135935;23;19908;-77
2022/07/30 21:42:20;;;;;;;;;;;18.80;99.90;;;;;;6161207;23;19913;-77
2022/07/30 21:44:45;;;;;;;;;;;18.80;99.90;;;;;;6136434;23;19912;-78
2022/07/30 21:47:13;;;;;;;;;;;18.80;99.90;;;;;;6160798;23;20307;-76
2022/07/30 21:49:41;;;;;;;;;;;18.80;99.90;;;;;;6136752;23;20263;-78
2022/07/30 21:52:07;;;;;;;;;;;18.80;99.90;;;;;;6136245;23;19914;-79
2022/07/30 21:54:33;;;;;;;;;;;18.70;99.90;;;;;;6160369;23;19940;-77
2022/07/30 21:56:58;;;;;;;;;;;18.70;99.90;;;;;;6160506;23;20393;-78
2022/07/30 21:59:24;;;;;;;;;;;18.70;99.90;;;;;;6160085;23;19908;-79
2022/07/30 22:01:53;;;;;;;;;;;18.70;99.90;;;;;;6136956;23;20267;-79
2022/07/30 22:04:19;;;;;;;;;;;18.70;99.90;;;;;;6135567;23;19915;-77
2022/07/30 22:06:47;;;;;;;;;;;18.80;99.90;;;;;;6136513;23;19938;-78
2022/07/30 22:09:15;;;;;;;;;;;18.80;99.90;;;;;;6135740;23;19908;-78
2022/07/30 22:11:46;;;;;;;;;;;18.70;99.90;;;;;;6160651;23;19909;-78
2022/07/30 22:14:14;;;;;;;;;;;18.80;99.90;;;;;;6135493;23;19908;-79
2022/07/30 22:16:43;;;;;;;;;;;18.70;99.90;;;;;;6135910;23;19967;-80
2022/07/30 22:19:09;;;;;;;;;;;18.70;99.90;;;;;;6135747;23;20259;-80
2022/07/30 22:21:37;;;;;;;;;;;18.70;99.90;;;;;;6136325;23;19912;-78
2022/07/30 22:24:05;;;;;;;;;;;18.70;99.90;;;;;;6135873;23;19914;-78
2022/07/30 22:26:33;;;;;;;;;;;18.70;99.90;;;;;;6135693;23;19908;-78
2022/07/30 22:28:59;;;;;;;;;;;18.70;99.90;;;;;;6160360;23;19908;-78
2022/07/30 22:31:25;;;;;;;;;;;18.70;99.90;;;;;;6160699;23;19916;-77
2022/07/30 22:33:51;;;;;;;;;;;18.70;99.90;;;;;;6160057;23;19911;-77
2022/07/30 22:36:16;;;;;;;;;;;18.60;99.90;;;;;;6136087;23;19967;-77
2022/07/30 22:38:42;;;;;;;;;;;18.70;99.90;;;;;;6135521;23;19912;-77
2022/07/30 22:41:10;;;;;;;;;;;18.60;99.90;;;;;;6135946;23;19958;-77
2022/07/30 22:43:38;;;;;;;;;;;18.50;99.90;;;;;;6135962;23;19916;-77
2022/07/30 22:46:04;;;;;;;;;;;18.50;99.90;;;;;;6135251;23;19912;-77
2022/07/30 22:48:29;;;;;;;;;;;18.50;99.90;;;;;;6186776;23;20314;-77
2022/07/30 22:50:55;;;;;;;;;;;18.50;99.90;;;;;;6135768;23;20225;-78
2022/07/30 22:53:21;;;;;;;;;;;18.40;99.90;;;;;;6160349;23;19912;-77
2022/07/30 22:55:47;;;;;;;;;;;18.40;99.90;;;;;;6135471;23;19912;-77
2022/07/30 22:58:13;;;;;;;;;;;18.30;99.90;;;;;;6136112;23;20315;-78
2022/07/30 23:00:38;;;;;;;;;;;18.30;99.90;;;;;;6136016;23;19921;-77
2022/07/30 23:03:04;;;;;;;;;;;18.30;99.90;;;;;;6135723;23;19919;-78
2022/07/30 23:05:29;;;;;;;;;;;18.30;99.90;;;;;;6158807;23;19916;-78
2022/07/30 23:07:55;;;;;;;;;;;18.30;99.90;;;;;;6135485;23;19944;-79
2022/07/30 23:10:23;;;;;;;;;;;18.20;99.90;;;;;;6160315;23;20332;-75
2022/07/30 23:12:50;;;;;;;;;;;18.30;99.90;;;;;;6111323;23;20002;-76
2022/07/30 23:15:16;;;;;;;;;;;18.20;99.90;;;;;;6159639;23;20032;-78
2022/07/30 23:17:46;;;;;;;;;;;18.10;99.90;;;;;;6160042;23;19979;-77
2022/07/30 23:20:14;;;;;;;;;;;18.10;99.90;;;;;;6158852;23;19912;-78
2022/07/30 23:22:40;;;;;;;;;;;18.10;99.90;;;;;;6136333;23;19983;-78
2022/07/30 23:25:06;;;;;;;;;;;18.00;99.90;;;;;;6160402;23;19919;-78
2022/07/30 23:27:33;;;;;;;;;;;18.00;99.90;;;;;;6160188;23;19908;-77
2022/07/30 23:30:01;;;;;;;;;;;18.00;99.90;;;;;;6136228;23;20302;-78
2022/07/30 23:32:27;;;;;;;;;;;18.00;99.90;;;;;;6135461;23;19930;-77
2022/07/30 23:34:55;;;;;;;;;;;17.90;99.90;;;;;;6135575;23;19983;-77
2022/07/30 23:37:21;;;;;;;;;;;17.90;99.90;;;;;;6159909;23;20306;-79
2022/07/30 23:39:47;;;;;;;;;;;17.90;99.90;;;;;;6159312;23;19922;-77
2022/07/30 23:42:12;;;;;;;;;;;17.80;99.90;;;;;;6159311;23;19908;-78
2022/07/30 23:44:38;;;;;;;;;;;17.90;99.90;;;;;;6159616;23;19913;-78
2022/07/30 23:47:06;;;;;;;;;;;17.80;99.90;;;;;;6135470;23;19912;-78
2022/07/30 23:49:32;;;;;;;;;;;17.80;99.90;;;;;;6160162;23;19912;-77
2022/07/30 23:51:57;;;;;;;;;;;17.80;99.90;;;;;;6160149;23;19987;-77
2022/07/30 23:54:23;;;;;;;;;;;17.80;99.90;;;;;;6135611;23;19912;-77
2022/07/30 23:56:53;;;;;;;;;;;17.70;99.90;;;;;;6135934;23;20286;-78
2022/07/30 23:59:19;;;;;;;;;;;17.80;99.90;;;;;;6111822;23;19920;-77
